createdAt,value
2023-03-21T00:03:37.425Z,99101.48
2023-03-21T00:07:35.490Z,99096.68
2023-03-21T00:11:33.472Z,99083.85
2023-03-21T00:15:42.550Z,99079.45
2023-03-21T00:19:49.949Z,99083.88
2023-03-21T00:23:49.628Z,99084.77
2023-03-21T00:28:05.293Z,99081.23
2023-03-21T00:32:05.390Z,99078.20
2023-03-21T00:36:05.959Z,99075.67
2023-03-21T00:40:05.563Z,99071.55
2023-03-21T00:44:05.334Z,99075.07
2023-03-21T00:48:03.541Z,99077.69
2023-03-21T00:52:17.110Z,99074.98
2023-03-21T00:56:18.412Z,99074.36
2023-03-21T01:00:17.316Z,99068.05
2023-03-21T01:04:21.360Z,99066.79
2023-03-21T01:08:25.357Z,99061.45
2023-03-21T01:12:26.299Z,99068.98
2023-03-21T01:16:24.326Z,99064.08
2023-03-21T01:20:22.359Z,99062.75
2023-03-21T01:24:21.268Z,99064.40
2023-03-21T01:28:20.467Z,99061.71
2023-03-21T01:32:18.257Z,99061.86
2023-03-21T01:36:16.545Z,99067.02
2023-03-21T01:40:21.474Z,99066.77
2023-03-21T01:44:33.229Z,99071.40
2023-03-21T01:48:31.362Z,99065.03
2023-03-21T01:52:37.409Z,99065.23
2023-03-21T01:56:47.223Z,99063.67
2023-03-21T02:00:45.280Z,99064.80
2023-03-21T02:04:57.264Z,99063.68
2023-03-21T02:08:55.305Z,99065.95
2023-03-21T02:12:53.228Z,99065.32
2023-03-21T02:17:02.327Z,99069.98
2023-03-21T02:21:30.240Z,99070.60
2023-03-21T02:25:44.304Z,99069.98
2023-03-21T02:30:04.187Z,99071.02
2023-03-21T02:34:33.208Z,99070.44
2023-03-21T02:38:40.195Z,99075.88
2023-03-21T02:42:43.342Z,99075.13
2023-03-21T02:47:02.980Z,99073.44
2023-03-21T02:51:10.197Z,99068.31
2023-03-21T02:55:11.141Z,99075.05
2023-03-21T02:59:22.233Z,99076.21
2023-03-21T03:03:33.611Z,99079.48
2023-03-21T03:07:44.273Z,99075.77
2023-03-21T03:11:51.163Z,99078.15
2023-03-21T03:15:54.309Z,99081.42
2023-03-21T03:20:15.519Z,99080.80
2023-03-21T03:24:41.161Z,99077.26
2023-03-21T03:28:45.106Z,99081.10
2023-03-21T03:32:55.182Z,99082.98
2023-03-21T03:37:03.141Z,99081.04
2023-03-21T03:41:06.206Z,99087.71
2023-03-21T03:45:12.092Z,99084.78
2023-03-21T03:49:15.097Z,99084.09
2023-03-21T03:53:22.069Z,99082.48
2023-03-21T03:57:21.122Z,99083.19
2023-03-21T04:01:19.051Z,99083.98
2023-03-21T04:05:17.115Z,99089.27
2023-03-21T04:09:21.928Z,99092.28
2023-03-21T04:13:21.190Z,99093.93
2023-03-21T04:17:34.053Z,99094.71
2023-03-21T04:21:34.127Z,99089.04
2023-03-21T04:25:34.075Z,99092.25
2023-03-21T04:29:32.134Z,99094.23
2023-03-21T04:34:03.091Z,99100.73
2023-03-21T04:38:01.164Z,99093.04
2023-03-21T04:42:01.099Z,99093.65
2023-03-21T04:45:59.388Z,99096.21
2023-03-21T04:49:58.051Z,99095.30
2023-03-21T04:53:56.055Z,99101.54
2023-03-21T04:57:54.061Z,99101.69
2023-03-21T05:01:52.113Z,99100.45
2023-03-21T05:05:53.010Z,99105.70
2023-03-21T05:09:52.144Z,99105.66
2023-03-21T05:13:49.976Z,99104.09
2023-03-21T05:17:48.999Z,99104.40
2023-03-21T05:21:48.966Z,99101.50
2023-03-21T05:25:50.025Z,99100.66
2023-03-21T05:29:57.955Z,99106.55
2023-03-21T05:33:58.966Z,99106.27
2023-03-21T05:37:56.949Z,99107.44
2023-03-21T05:41:56.968Z,99112.28
2023-03-21T05:45:55.244Z,99113.25
2023-03-21T05:49:54.284Z,99112.05
2023-03-21T05:53:51.936Z,99113.90
2023-03-21T05:57:50.020Z,99123.85
2023-03-21T06:01:51.953Z,99124.65
2023-03-21T06:05:49.995Z,99121.58
2023-03-21T06:09:50.010Z,99129.96
2023-03-21T06:13:47.981Z,99131.13
2023-03-21T06:17:45.954Z,99128.13
2023-03-21T06:21:44.043Z,99130.00
2023-03-21T06:25:41.883Z,99135.66
2023-03-21T06:29:41.951Z,99137.77
2023-03-21T06:33:39.921Z,99139.60
2023-03-21T06:37:38.010Z,99138.34
2023-03-21T06:41:35.849Z,99145.16
2023-03-21T06:45:33.872Z,99152.67
2023-03-21T06:49:34.913Z,99151.20
2023-03-21T06:53:36.139Z,99150.89
2023-03-21T06:57:45.963Z,99156.41
2023-03-21T07:01:27.760Z,99159.89
2023-03-21T07:04:58.560Z,99164.13
2023-03-21T07:08:25.511Z,99160.94
2023-03-21T07:11:53.464Z,99161.57
2023-03-21T07:15:18.978Z,99161.29
2023-03-21T07:18:46.708Z,99163.41
2023-03-21T07:22:10.735Z,99166.34
2023-03-21T07:25:36.046Z,99169.48
2023-03-21T07:29:00.398Z,99174.87
2023-03-21T07:32:24.641Z,99177.05
2023-03-21T07:35:48.595Z,99175.38
2023-03-21T07:39:12.442Z,99174.36
2023-03-21T07:42:36.524Z,99171.07
2023-03-21T07:46:01.637Z,99172.30
2023-03-21T07:49:26.631Z,99176.77
2023-03-21T07:52:50.599Z,99177.49
2023-03-21T07:56:14.566Z,99180.90
2023-03-21T07:59:38.555Z,99178.20
2023-03-21T08:03:03.087Z,99183.21
2023-03-21T08:06:30.135Z,99184.20
2023-03-21T08:09:53.981Z,99185.83
2023-03-21T08:13:17.898Z,99185.51
2023-03-21T08:16:41.807Z,99183.20
2023-03-21T08:20:09.172Z,99185.52
2023-03-21T08:23:34.619Z,99187.54
2023-03-21T08:26:58.620Z,99185.10
2023-03-21T08:30:29.113Z,99192.35
2023-03-21T08:33:54.862Z,99189.77
2023-03-21T08:37:19.364Z,99187.44
2023-03-21T08:40:43.236Z,99189.48
2023-03-21T08:44:07.840Z,99195.02
2023-03-21T08:47:31.964Z,99202.84
2023-03-21T08:50:55.826Z,99203.05
2023-03-21T08:54:21.841Z,99210.41
2023-03-21T08:57:46.524Z,99212.42
2023-03-21T09:01:11.512Z,99213.27
2023-03-21T09:04:35.653Z,99212.94
2023-03-21T09:08:01.652Z,99215.31
2023-03-21T09:11:25.528Z,99215.81
2023-03-21T09:14:50.297Z,99220.36
2023-03-21T09:18:15.222Z,99220.93
2023-03-21T09:21:40.435Z,99220.68
2023-03-21T09:25:08.529Z,99222.77
2023-03-21T09:28:34.746Z,99225.65
2023-03-21T09:31:58.688Z,99225.88
2023-03-21T09:35:22.811Z,99233.80
2023-03-21T09:38:48.119Z,99237.02
2023-03-21T09:42:28.437Z,99231.59
2023-03-21T09:45:58.448Z,99231.66
2023-03-21T09:49:35.660Z,99233.63
2023-03-21T09:53:05.396Z,99233.14
2023-03-21T09:56:30.537Z,99233.95
2023-03-21T09:59:58.953Z,99227.86
2023-03-21T10:03:27.616Z,99232.40
2023-03-21T10:07:05.157Z,99231.88
2023-03-21T10:10:33.487Z,99228.13
2023-03-21T10:14:02.116Z,99233.40
2023-03-21T10:17:43.669Z,99234.82
2023-03-21T10:21:08.804Z,99236.44
2023-03-21T10:24:35.694Z,99241.66
2023-03-21T10:28:01.895Z,99239.65
2023-03-21T10:31:30.315Z,99241.25
2023-03-21T10:34:58.508Z,99240.08
2023-03-21T10:38:25.697Z,99241.91
2023-03-21T10:41:49.672Z,99243.33
2023-03-21T10:45:20.253Z,99245.21
2023-03-21T10:48:47.039Z,99243.14
2023-03-21T10:52:13.429Z,99240.84
2023-03-21T10:55:42.087Z,99243.02
2023-03-21T10:59:08.418Z,99241.28
2023-03-21T11:02:36.374Z,99238.15
2023-03-21T11:06:09.724Z,99236.04
2023-03-21T11:09:50.032Z,99232.10
2023-03-21T11:13:27.416Z,99229.15
2023-03-21T11:16:52.029Z,99230.30
2023-03-21T11:20:20.088Z,99227.40
2023-03-21T11:23:48.264Z,99228.80
2023-03-21T11:27:12.123Z,99228.77
2023-03-21T11:30:36.276Z,99228.23
2023-03-21T11:34:01.700Z,99218.85
2023-03-21T11:37:46.218Z,99222.80
2023-03-21T11:41:10.147Z,99216.14
2023-03-21T11:44:42.479Z,99217.83
2023-03-21T11:48:15.474Z,99215.05
2023-03-21T11:51:50.019Z,99210.59
2023-03-21T11:55:27.481Z,99210.63
2023-03-21T11:59:07.719Z,99209.13
2023-03-21T12:02:57.642Z,99208.62
2023-03-21T12:06:31.514Z,99209.65
2023-03-21T12:10:09.713Z,99214.52
2023-03-21T12:13:48.955Z,99218.71
2023-03-21T12:17:27.584Z,99214.30
2023-03-21T12:20:59.874Z,99213.81
2023-03-21T12:24:31.421Z,99208.56
2023-03-21T12:28:31.722Z,99206.79
2023-03-21T12:32:12.237Z,99203.20
2023-03-21T12:35:46.208Z,99200.29
2023-03-21T12:39:31.471Z,99195.90
2023-03-21T12:43:23.193Z,99195.31
2023-03-21T12:47:04.670Z,99195.98
2023-03-21T12:50:37.541Z,99191.57
2023-03-21T12:54:32.851Z,99188.62
2023-03-21T12:58:12.696Z,99192.46
2023-03-21T13:01:40.072Z,99189.06
2023-03-21T13:05:22.270Z,99190.08
2023-03-21T13:09:11.655Z,99189.02
2023-03-21T13:12:59.314Z,99188.41
2023-03-21T13:16:45.872Z,99185.32
2023-03-21T13:20:24.407Z,99185.61
2023-03-21T13:24:01.612Z,99189.75
2023-03-21T13:27:25.986Z,99188.63
2023-03-21T13:30:50.351Z,99186.52
2023-03-21T13:34:15.770Z,99189.48
2023-03-21T13:37:44.601Z,99192.35
2023-03-21T13:41:10.647Z,99193.12
2023-03-21T13:44:45.767Z,99192.34
2023-03-21T13:48:29.195Z,99191.77
2023-03-21T13:51:58.593Z,99186.70
2023-03-21T13:55:26.198Z,99183.27
2023-03-21T13:58:50.276Z,99181.61
2023-03-21T14:02:24.410Z,99180.39
2023-03-21T14:05:52.235Z,99184.10
2023-03-21T14:09:39.568Z,99186.02
2023-03-21T14:13:06.725Z,99183.88
2023-03-21T14:16:32.401Z,99183.69
2023-03-21T14:20:00.803Z,99178.98
2023-03-21T14:23:27.094Z,99173.78
2023-03-21T14:26:53.597Z,99173.71
2023-03-21T14:30:55.469Z,99171.73
2023-03-21T14:34:53.303Z,99174.48
2023-03-21T14:38:54.337Z,99171.52
2023-03-21T14:42:53.314Z,99168.06
2023-03-21T14:46:51.442Z,99167.06
2023-03-21T14:50:57.304Z,99170.42
2023-03-21T14:54:57.413Z,99174.23
2023-03-21T14:58:58.293Z,99173.48
2023-03-21T15:02:58.332Z,99169.50
2023-03-21T15:07:15.251Z,99165.50
2023-03-21T15:11:21.281Z,99169.76
2023-03-21T15:15:19.346Z,99167.80
2023-03-21T15:19:18.367Z,99171.98
2023-03-21T15:23:21.357Z,99172.95
2023-03-21T15:27:22.305Z,99174.11
2023-03-21T15:31:28.275Z,99178.07
2023-03-21T15:35:39.656Z,99178.98
2023-03-21T15:39:37.335Z,99177.36
2023-03-21T15:43:35.302Z,99180.15
2023-03-21T15:48:10.366Z,99176.02
2023-03-21T15:52:30.215Z,99177.48
2023-03-21T15:56:28.233Z,99183.43
2023-03-21T16:00:32.456Z,99184.76
2023-03-21T16:04:31.196Z,99183.66
2023-03-21T16:08:36.206Z,99184.91
2023-03-21T16:12:35.223Z,99186.73
2023-03-21T16:16:39.223Z,99186.36
2023-03-21T16:20:40.590Z,99190.27
2023-03-21T16:24:38.172Z,99190.15
2023-03-21T16:28:36.170Z,99197.42
2023-03-21T16:32:34.183Z,99198.55
2023-03-21T16:36:51.331Z,99202.52
2023-03-21T16:40:52.282Z,99211.51
2023-03-21T16:44:50.130Z,99215.48
2023-03-21T16:48:48.138Z,99213.64
2023-03-21T16:52:46.221Z,99216.27
2023-03-21T16:56:52.185Z,99213.14
2023-03-21T17:00:50.170Z,99211.46
2023-03-21T17:04:48.243Z,99215.41
2023-03-21T17:08:46.292Z,99218.48
2023-03-21T17:12:44.121Z,99226.21
2023-03-21T17:16:42.202Z,99225.11
2023-03-21T17:20:48.260Z,99230.27
2023-03-21T17:24:46.225Z,99232.04
2023-03-21T17:28:44.089Z,99232.78
2023-03-21T17:32:42.159Z,99232.17
2023-03-21T17:36:49.108Z,99233.34
2023-03-21T17:40:48.476Z,99237.02
2023-03-21T17:44:47.113Z,99244.00
2023-03-21T17:48:45.049Z,99243.88
2023-03-21T17:52:44.156Z,99240.16
2023-03-21T17:56:47.081Z,99242.31
2023-03-21T18:00:45.137Z,99239.17
2023-03-21T18:04:43.076Z,99243.00
2023-03-21T18:08:41.108Z,99241.39
2023-03-21T18:12:39.051Z,99243.02
2023-03-21T18:16:38.141Z,99250.04
2023-03-21T18:20:54.673Z,99249.29
2023-03-21T18:24:54.062Z,99258.05
2023-03-21T18:29:36.797Z,99264.73
2023-03-21T18:33:12.080Z,99267.71
2023-03-21T18:37:12.678Z,99267.35
2023-03-21T18:41:11.109Z,99264.30
2023-03-21T18:45:09.088Z,99266.09
2023-03-21T18:49:35.889Z,99267.23
2023-03-21T18:53:25.114Z,99274.08
2023-03-21T18:57:39.533Z,99278.54
2023-03-21T19:01:37.381Z,99281.80
2023-03-21T19:05:38.029Z,99285.15
2023-03-21T19:09:58.204Z,99288.77
2023-03-21T19:13:54.123Z,99289.49
2023-03-21T19:22:14.992Z,99295.70
2023-03-21T19:26:13.050Z,99296.52
2023-03-21T19:30:15.724Z,99296.10
2023-03-21T19:34:13.973Z,99295.52
2023-03-21T19:38:12.102Z,99299.48
2023-03-21T19:42:16.965Z,99299.86
2023-03-21T19:46:15.014Z,99304.48
2023-03-21T19:50:47.824Z,99304.71
2023-03-21T19:54:30.998Z,99312.18
2023-03-21T19:58:28.932Z,99313.95
2023-03-21T20:02:35.604Z,99307.06
2023-03-21T20:06:34.868Z,99306.48
2023-03-21T20:10:33.926Z,99306.10
2023-03-21T20:14:33.037Z,99300.65
2023-03-21T20:18:30.903Z,99299.20
2023-03-21T20:22:58.872Z,99296.02
2023-03-21T20:26:49.011Z,99299.25
2023-03-21T20:30:46.934Z,99301.24
2023-03-21T20:34:47.294Z,99308.02
2023-03-21T20:38:46.111Z,99307.77
2023-03-21T20:42:43.879Z,99311.54
2023-03-21T20:46:41.977Z,99307.73
2023-03-21T20:50:41.350Z,99305.95
2023-03-21T20:54:39.893Z,99308.59
2023-03-21T20:59:01.608Z,99311.08
2023-03-21T21:02:56.901Z,99314.92
2023-03-21T21:06:54.853Z,99315.98
2023-03-21T21:11:42.789Z,99319.52
2023-03-21T21:15:14.872Z,99316.34
2023-03-21T21:19:12.845Z,99319.51
2023-03-21T21:23:10.925Z,99319.75
2023-03-21T21:27:08.846Z,99320.59
2023-03-21T21:31:06.975Z,99325.23
2023-03-21T21:35:04.825Z,99324.36
2023-03-21T21:39:02.807Z,99322.90
2023-03-21T21:43:00.965Z,99324.89
2023-03-21T21:46:58.934Z,99325.64
2023-03-21T21:50:58.877Z,99325.52
2023-03-21T21:54:58.794Z,99326.23
2023-03-21T21:58:59.847Z,99329.04
2023-03-21T22:02:57.846Z,99329.70
2023-03-21T22:06:57.073Z,99332.38
2023-03-21T22:10:55.817Z,99334.14
2023-03-21T22:14:53.698Z,99336.75
2023-03-21T22:18:51.733Z,99335.70
2023-03-21T22:22:50.690Z,99340.47
2023-03-21T22:26:57.789Z,99340.30
2023-03-21T22:30:56.822Z,99338.94
2023-03-21T22:34:54.741Z,99337.50
2023-03-21T22:38:52.739Z,99339.29
2023-03-21T22:42:51.752Z,99333.12
2023-03-21T22:46:49.718Z,99333.54
2023-03-21T22:50:47.721Z,99333.95
2023-03-21T22:54:45.688Z,99338.70
2023-03-21T22:58:43.682Z,99333.66
2023-03-21T23:02:44.048Z,99334.85
2023-03-21T23:06:41.791Z,99331.02
2023-03-21T23:10:39.892Z,99335.80
2023-03-21T23:14:37.675Z,99339.77
2023-03-21T23:18:35.652Z,99340.09
2023-03-21T23:22:33.675Z,99337.92
2023-03-21T23:26:33.605Z,99335.24
2023-03-21T23:30:31.653Z,99332.71
2023-03-21T23:34:29.617Z,99334.04
2023-03-21T23:38:27.639Z,99328.51
2023-03-21T23:42:25.618Z,99321.42
2023-03-21T23:46:24.662Z,99317.55
2023-03-21T23:50:23.596Z,99320.44
2023-03-21T23:54:21.578Z,99317.02
2023-03-21T23:58:21.601Z,99309.81
